PWSweather.com
Personal Weather Stations
Station Observations
PALMY
Palmerston NorthNZ 4410

Palmerston NorthNZ 4410

Lat: -40.349104, Lon: 175.615094

Elevation: 75.4

Station Type: WeatherDuino Pro2

http://palmyweather.co.nz

Latest ConditionsUpdated 9:20:00 AM GMT+12:12 Friday, Oct 19, 2018
Currently Today's Max Today's Min Today's Average
Temperature 59.5°F15.3°C 59.5°F15.3°C 33.6°F0.9°C 42.2°F5.7°C
Dew Point 30.4°F-0.9°C 35.1°F1.7°C 29.2°F-1.6°C 31.7°F-0.2°C
Winds 2.2 mph N3.5 kmh N 4.0 mph -6.4 kmh - - 1.8 mph 2.9 kmh
Wind Gusts 5.4 mph8.7 kmh 9.9 mph15.9 kmh - -
Humidity 33% 86% 32% 69%
Pressure 30.42 in1030.1 mb 30.42 in1030.1 mb 30.38 in1028.8 mb -
Hour Temp Dew Point Humidity Winds Wind Gusts Pressure Precip Precip Rate Daily Precip Total
09:20 AM 59.5°F15.3°C 30.4°F-0.9°C 33% 2.2 mph N3.5 kmh N 5.4 mph8.7 kmh 30.42 in1030.1 mb 0.00 in0.0 mm 0.00 in0.0 mm 0.00 in0.0 mm
09:15 AM 59.3°F15.2°C 29.4°F-1.4°C 32% 2.2 mph N3.5 kmh N 5.4 mph8.7 kmh 30.42 in1030.1 mb 0.00 in0.0 mm 0.00 in0.0 mm 0.00 in0.0 mm
09:10 AM 57.9°F14.4°C 31.1°F-0.5°C 36% 1.8 mph NW2.9 kmh NW 4.9 mph7.9 kmh 30.41 in1029.8 mb 0.00 in0.0 mm 0.00 in0.0 mm 0.00 in0.0 mm
09:05 AM 57.3°F14.1°C 29.9°F-1.2°C 35% 1.3 mph NNW2.1 kmh NNW 3.6 mph5.8 kmh 30.42 in1030.1 mb 0.00 in0.0 mm 0.00 in0.0 mm 0.00 in0.0 mm
09:00 AM 58.4°F14.7°C 31.6°F-0.2°C 36% 1.3 mph N2.1 kmh N 4.9 mph7.9 kmh 30.42 in1030.1 mb 0.00 in0.0 mm 0.00 in0.0 mm 0.00 in0.0 mm
08:55 AM 57.2°F14.0°C 32.5°F0.3°C 39% 1.8 mph N2.9 kmh N 5.4 mph8.7 kmh 30.42 in1030.1 mb 0.00 in0.0 mm 0.00 in0.0 mm 0.00 in0.0 mm
08:50 AM 55.7°F13.2°C 31.8°F-0.1°C 40% 1.8 mph N2.9 kmh N 5.4 mph8.7 kmh 30.42 in1030.1 mb 0.00 in0.0 mm 0.00 in0.0 mm 0.00 in0.0 mm
08:45 AM 55.0°F12.8°C 32.9°F0.5°C 43% 1.8 mph NE2.9 kmh NE 4.9 mph7.9 kmh 30.42 in1030.1 mb 0.00 in0.0 mm 0.00 in0.0 mm 0.00 in0.0 mm
08:40 AM 53.0°F11.7°C 33.3°F0.7°C 47% 1.3 mph ENE2.1 kmh ENE 2.7 mph4.3 kmh 30.42 in1030.1 mb 0.00 in0.0 mm 0.00 in0.0 mm 0.00 in0.0 mm
08:35 AM 52.5°F11.4°C 32.3°F0.2°C 46% 1.3 mph ENE2.1 kmh ENE 2.7 mph4.3 kmh 30.42 in1030.1 mb 0.00 in0.0 mm 0.00 in0.0 mm 0.00 in0.0 mm
08:30 AM 53.6°F12.0°C 33.9°F1.1°C 47% 0.9 mph ENE1.4 kmh ENE 2.7 mph4.3 kmh 30.42 in1030.1 mb 0.00 in0.0 mm 0.00 in0.0 mm 0.00 in0.0 mm
08:25 AM 51.8°F11.0°C 32.2°F0.1°C 47% 0.9 mph ENE1.4 kmh ENE 2.2 mph3.5 kmh 30.42 in1030.1 mb 0.00 in0.0 mm 0.00 in0.0 mm 0.00 in0.0 mm
08:20 AM 50.9°F10.5°C 31.9°F-0.1°C 48% 0.9 mph ENE1.4 kmh ENE 2.7 mph4.3 kmh 30.42 in1030.1 mb 0.00 in0.0 mm 0.00 in0.0 mm 0.00 in0.0 mm
08:15 AM 49.8°F9.9°C 32.9°F0.5°C 52% 0.9 mph ENE1.4 kmh ENE 2.7 mph4.3 kmh 30.42 in1030.1 mb 0.00 in0.0 mm 0.00 in0.0 mm 0.00 in0.0 mm
08:10 AM 49.8°F9.9°C 32.9°F0.5°C 52% 0.9 mph ENE1.4 kmh ENE 2.7 mph4.3 kmh 30.42 in1030.1 mb 0.00 in0.0 mm 0.00 in0.0 mm 0.00 in0.0 mm
08:05 AM 47.4°F8.6°C 32.1°F0.1°C 55% 0.9 mph ENE1.4 kmh ENE 2.7 mph4.3 kmh 30.42 in1030.1 mb 0.00 in0.0 mm 0.00 in0.0 mm 0.00 in0.0 mm
08:00 AM 47.4°F8.6°C 32.1°F0.1°C 55% 1.3 mph ENE2.1 kmh ENE 3.1 mph5.0 kmh 30.42 in1030.1 mb 0.00 in0.0 mm 0.00 in0.0 mm 0.00 in0.0 mm
07:55 AM 47.4°F8.6°C 32.1°F0.1°C 55% 1.3 mph NE2.1 kmh NE 3.1 mph5.0 kmh 30.42 in1030.1 mb 0.00 in0.0 mm 0.00 in0.0 mm 0.00 in0.0 mm
07:50 AM 47.3°F8.5°C 32.4°F0.2°C 56% 1.8 mph NE2.9 kmh NE 3.6 mph5.8 kmh 30.42 in1030.1 mb 0.00 in0.0 mm 0.00 in0.0 mm 0.00 in0.0 mm
07:45 AM 47.8°F8.8°C 32.4°F0.2°C 55% 1.8 mph NE2.9 kmh NE 3.6 mph5.8 kmh 30.42 in1030.1 mb 0.00 in0.0 mm 0.00 in0.0 mm 0.00 in0.0 mm
07:40 AM 47.3°F8.5°C 32.4°F0.2°C 56% 1.8 mph NE2.9 kmh NE 3.6 mph5.8 kmh 30.42 in1030.1 mb 0.00 in0.0 mm 0.00 in0.0 mm 0.00 in0.0 mm
07:35 AM 45.5°F7.5°C 32.0°F0.0°C 59% 1.8 mph NE2.9 kmh NE 4.0 mph6.4 kmh 30.42 in1030.1 mb 0.00 in0.0 mm 0.00 in0.0 mm 0.00 in0.0 mm
07:30 AM 45.1°F7.3°C 31.2°F-0.4°C 58% 1.8 mph NE2.9 kmh NE 4.0 mph6.4 kmh 30.42 in1030.1 mb 0.00 in0.0 mm 0.00 in0.0 mm 0.00 in0.0 mm
07:25 AM 45.1°F7.3°C 30.8°F-0.7°C 57% 1.3 mph NE2.1 kmh NE 3.1 mph5.0 kmh 30.42 in1030.1 mb 0.00 in0.0 mm 0.00 in0.0 mm 0.00 in0.0 mm
07:20 AM 47.4°F8.6°C 31.1°F-0.5°C 53% 1.3 mph NE2.1 kmh NE 2.7 mph4.3 kmh 30.42 in1030.1 mb 0.00 in0.0 mm 0.00 in0.0 mm 0.00 in0.0 mm
07:15 AM 48.7°F9.3°C 31.4°F-0.3°C 51% 0.9 mph NE1.4 kmh NE 2.7 mph4.3 kmh 30.42 in1030.1 mb 0.00 in0.0 mm 0.00 in0.0 mm 0.00 in0.0 mm
07:10 AM 50.9°F10.5°C 31.4°F-0.3°C 47% 0.9 mph NE1.4 kmh NE 2.7 mph4.3 kmh 30.42 in1030.1 mb 0.00 in0.0 mm 0.00 in0.0 mm 0.00 in0.0 mm
07:05 AM 52.7°F11.5°C 32.0°F0.0°C 45% 1.3 mph NE2.1 kmh NE 2.7 mph4.3 kmh 30.42 in1030.1 mb 0.00 in0.0 mm 0.00 in0.0 mm 0.00 in0.0 mm
07:00 AM 52.3°F11.3°C 30.5°F-0.8°C 43% 1.8 mph NE2.9 kmh NE 3.6 mph5.8 kmh 30.42 in1030.1 mb 0.00 in0.0 mm 0.00 in0.0 mm 0.00 in0.0 mm
06:55 AM 51.2°F10.7°C 32.2°F0.1°C 48% 1.8 mph NE2.9 kmh NE 3.6 mph5.8 kmh 30.42 in1030.1 mb 0.00 in0.0 mm 0.00 in0.0 mm 0.00 in0.0 mm
06:50 AM 50.9°F10.5°C 31.9°F-0.1°C 48% 1.8 mph NE2.9 kmh NE 3.6 mph5.8 kmh 30.42 in1030.1 mb 0.00 in0.0 mm 0.00 in0.0 mm 0.00 in0.0 mm
06:45 AM 48.0°F8.9°C 31.7°F-0.2°C 53% 1.8 mph ENE2.9 kmh ENE 4.0 mph6.4 kmh 30.42 in1030.1 mb 0.00 in0.0 mm 0.00 in0.0 mm 0.00 in0.0 mm
06:40 AM 46.0°F7.8°C 30.3°F-0.9°C 54% 1.8 mph NE2.9 kmh NE 4.0 mph6.4 kmh 30.42 in1030.1 mb 0.00 in0.0 mm 0.00 in0.0 mm 0.00 in0.0 mm
06:35 AM 50.7°F10.4°C 31.7°F-0.2°C 48% 1.8 mph NE2.9 kmh NE 3.1 mph5.0 kmh 30.42 in1030.1 mb 0.00 in0.0 mm 0.00 in0.0 mm 0.00 in0.0 mm
06:30 AM 47.6°F8.7°C 31.8°F-0.1°C 54% 1.3 mph NE2.1 kmh NE 4.0 mph6.4 kmh 30.42 in1030.1 mb 0.00 in0.0 mm 0.00 in0.0 mm 0.00 in0.0 mm
06:25 AM 45.6°F7.6°C 30.4°F-0.9°C 55% 1.8 mph NE2.9 kmh NE 4.0 mph6.4 kmh 30.41 in1029.8 mb 0.00 in0.0 mm 0.00 in0.0 mm 0.00 in0.0 mm
06:20 AM 48.0°F8.9°C 32.2°F0.1°C 54% 1.8 mph NE2.9 kmh NE 4.0 mph6.4 kmh 30.42 in1030.1 mb 0.00 in0.0 mm 0.00 in0.0 mm 0.00 in0.0 mm
06:15 AM 45.5°F7.5°C 31.6°F-0.2°C 58% 1.3 mph NE2.1 kmh NE 3.1 mph5.0 kmh 30.41 in1029.8 mb 0.00 in0.0 mm 0.00 in0.0 mm 0.00 in0.0 mm
06:10 AM 46.5°F8.1°C 32.1°F0.1°C 57% 0.9 mph NE1.4 kmh NE 3.1 mph5.0 kmh 30.41 in1029.8 mb 0.00 in0.0 mm 0.00 in0.0 mm 0.00 in0.0 mm
06:05 AM 44.2°F6.8°C 35.1°F1.7°C 70% 1.3 mph ENE2.1 kmh ENE 4.0 mph6.4 kmh 30.41 in1029.8 mb 0.00 in0.0 mm 0.00 in0.0 mm 0.00 in0.0 mm
06:00 AM 37.9°F3.3°C 31.7°F-0.2°C 78% 2.2 mph ENE3.5 kmh ENE 4.0 mph6.4 kmh 30.41 in1029.8 mb 0.00 in0.0 mm 0.00 in0.0 mm 0.00 in0.0 mm
05:55 AM 34.7°F1.5°C 29.8°F-1.2°C 82% 2.2 mph ENE3.5 kmh ENE 4.0 mph6.4 kmh 30.40 in1029.5 mb 0.00 in0.0 mm 0.00 in0.0 mm 0.00 in0.0 mm
05:50 AM 34.5°F1.4°C 29.9°F-1.2°C 83% 2.2 mph ENE3.5 kmh ENE 3.6 mph5.8 kmh 30.41 in1029.8 mb 0.00 in0.0 mm 0.00 in0.0 mm 0.00 in0.0 mm
05:45 AM 34.3°F1.3°C 30.0°F-1.1°C 84% 1.8 mph ENE2.9 kmh ENE 3.6 mph5.8 kmh 30.40 in1029.5 mb 0.00 in0.0 mm 0.00 in0.0 mm 0.00 in0.0 mm
05:40 AM 34.1°F1.2°C 30.1°F-1.1°C 85% 1.3 mph ENE2.1 kmh ENE 3.1 mph5.0 kmh 30.41 in1029.8 mb 0.00 in0.0 mm 0.00 in0.0 mm 0.00 in0.0 mm
05:35 AM 34.1°F1.2°C 30.1°F-1.1°C 85% 2.2 mph E3.5 kmh E 4.0 mph6.4 kmh 30.40 in1029.5 mb 0.00 in0.0 mm 0.00 in0.0 mm 0.00 in0.0 mm
05:30 AM 34.1°F1.2°C 30.1°F-1.1°C 85% 2.2 mph ENE3.5 kmh ENE 4.0 mph6.4 kmh 30.40 in1029.5 mb 0.00 in0.0 mm 0.00 in0.0 mm 0.00 in0.0 mm
05:25 AM 34.3°F1.3°C 30.3°F-0.9°C 85% 1.8 mph ENE2.9 kmh ENE 4.0 mph6.4 kmh 30.40 in1029.5 mb 0.00 in0.0 mm 0.00 in0.0 mm 0.00 in0.0 mm
05:20 AM 34.3°F1.3°C 30.3°F-0.9°C 85% 2.2 mph ENE3.5 kmh ENE 4.0 mph6.4 kmh 30.40 in1029.5 mb 0.00 in0.0 mm 0.00 in0.0 mm 0.00 in0.0 mm
05:15 AM 34.5°F1.4°C 30.5°F-0.8°C 85% 2.2 mph ENE3.5 kmh ENE 3.6 mph5.8 kmh 30.40 in1029.5 mb 0.00 in0.0 mm 0.00 in0.0 mm 0.00 in0.0 mm
05:10 AM 34.5°F1.4°C 30.5°F-0.8°C 85% 1.3 mph ENE2.1 kmh ENE 3.1 mph5.0 kmh 30.40 in1029.5 mb 0.00 in0.0 mm 0.00 in0.0 mm 0.00 in0.0 mm
05:05 AM 34.3°F1.3°C 30.6°F-0.8°C 86% 0.9 mph ENE1.4 kmh ENE 3.1 mph5.0 kmh 30.40 in1029.5 mb 0.00 in0.0 mm 0.00 in0.0 mm 0.00 in0.0 mm
05:00 AM 34.3°F1.3°C 30.3°F-0.9°C 85% 0.9 mph ENE1.4 kmh ENE 1.8 mph2.9 kmh 30.40 in1029.5 mb 0.00 in0.0 mm 0.00 in0.0 mm 0.00 in0.0 mm
04:55 AM 33.9°F1.1°C 29.9°F-1.2°C 85% 0.9 mph ENE1.4 kmh ENE 2.7 mph4.3 kmh 30.40 in1029.5 mb 0.00 in0.0 mm 0.00 in0.0 mm 0.00 in0.0 mm
04:50 AM 34.1°F1.2°C 30.4°F-0.9°C 86% 0.9 mph NE1.4 kmh NE 2.7 mph4.3 kmh 30.39 in1029.1 mb 0.00 in0.0 mm 0.00 in0.0 mm 0.00 in0.0 mm
04:45 AM 33.6°F0.9°C 29.6°F-1.3°C 85% 0.4 mph NE0.6 kmh NE 1.8 mph2.9 kmh 30.39 in1029.1 mb 0.00 in0.0 mm 0.00 in0.0 mm 0.00 in0.0 mm
04:40 AM 33.8°F1.0°C 29.8°F-1.2°C 85% 0.4 mph NE0.6 kmh NE 1.3 mph2.1 kmh 30.39 in1029.1 mb 0.00 in0.0 mm 0.00 in0.0 mm 0.00 in0.0 mm
04:35 AM 33.6°F0.9°C 29.6°F-1.3°C 85% 0.4 mph NE0.6 kmh NE 1.3 mph2.1 kmh 30.39 in1029.1 mb 0.00 in0.0 mm 0.00 in0.0 mm 0.00 in0.0 mm
04:30 AM 33.6°F0.9°C 29.3°F-1.5°C 84% 0.4 mph NE0.6 kmh NE 0.9 mph1.4 kmh 30.39 in1029.1 mb 0.00 in0.0 mm 0.00 in0.0 mm 0.00 in0.0 mm
04:25 AM 33.8°F1.0°C 29.2°F-1.6°C 83% Calm Calm 0.9 mph1.4 kmh 30.39 in1029.1 mb 0.00 in0.0 mm 0.00 in0.0 mm 0.00 in0.0 mm
04:20 AM 34.1°F1.2°C 29.5°F-1.4°C 83% 0.4 mph NE0.6 kmh NE 2.2 mph3.5 kmh 30.39 in1029.1 mb 0.00 in0.0 mm 0.00 in0.0 mm 0.00 in0.0 mm
04:15 AM 34.7°F1.5°C 30.1°F-1.1°C 83% 0.9 mph NE1.4 kmh NE 2.2 mph3.5 kmh 30.39 in1029.1 mb 0.00 in0.0 mm 0.00 in0.0 mm 0.00 in0.0 mm
04:10 AM 34.7°F1.5°C 29.8°F-1.2°C 82% Calm Calm 1.3 mph2.1 kmh 30.39 in1029.1 mb 0.00 in0.0 mm 0.00 in0.0 mm 0.00 in0.0 mm
04:05 AM 34.8°F1.6°C 29.9°F-1.2°C 82% 0.4 mph NE0.6 kmh NE 2.2 mph3.5 kmh 30.39 in1029.1 mb 0.00 in0.0 mm 0.00 in0.0 mm 0.00 in0.0 mm
04:00 AM 35.2°F1.8°C 30.0°F-1.1°C 81% 0.9 mph NE1.4 kmh NE 2.7 mph4.3 kmh 30.39 in1029.1 mb 0.00 in0.0 mm 0.00 in0.0 mm 0.00 in0.0 mm
03:55 AM 35.4°F1.9°C 30.2°F-1.0°C 81% 0.9 mph NE1.4 kmh NE 3.6 mph5.8 kmh 30.39 in1029.1 mb 0.00 in0.0 mm 0.00 in0.0 mm 0.00 in0.0 mm
03:50 AM 35.7°F2.1°C 30.2°F-1.0°C 80% 1.3 mph NE2.1 kmh NE 4.0 mph6.4 kmh 30.39 in1029.1 mb 0.00 in0.0 mm 0.00 in0.0 mm 0.00 in0.0 mm
03:45 AM 36.1°F2.3°C 30.6°F-0.8°C 80% 1.3 mph NE2.1 kmh NE 4.0 mph6.4 kmh 30.38 in1028.8 mb 0.00 in0.0 mm 0.00 in0.0 mm 0.00 in0.0 mm
03:40 AM 36.1°F2.3°C 30.6°F-0.8°C 80% 1.3 mph NE2.1 kmh NE 4.0 mph6.4 kmh 30.38 in1028.8 mb 0.00 in0.0 mm 0.00 in0.0 mm 0.00 in0.0 mm
03:35 AM 36.3°F2.4°C 30.8°F-0.7°C 80% 2.2 mph ENE3.5 kmh ENE 7.6 mph12.2 kmh 30.38 in1028.8 mb 0.00 in0.0 mm 0.00 in0.0 mm 0.00 in0.0 mm
03:30 AM 36.6°F2.6°C 30.7°F-0.7°C 79% 2.7 mph ENE4.3 kmh ENE 7.6 mph12.2 kmh 30.38 in1028.8 mb 0.00 in0.0 mm 0.00 in0.0 mm 0.00 in0.0 mm
03:25 AM 36.8°F2.7°C 30.9°F-0.6°C 79% 2.7 mph ENE4.3 kmh ENE 5.4 mph8.7 kmh 30.39 in1029.1 mb 0.00 in0.0 mm 0.00 in0.0 mm 0.00 in0.0 mm
03:20 AM 36.8°F2.7°C 31.2°F-0.4°C 80% 2.2 mph ENE3.5 kmh ENE 4.5 mph7.2 kmh 30.39 in1029.1 mb 0.00 in0.0 mm 0.00 in0.0 mm 0.00 in0.0 mm
03:15 AM 36.8°F2.7°C 31.6°F-0.2°C 81% 1.8 mph ENE2.9 kmh ENE 4.0 mph6.4 kmh 30.39 in1029.1 mb 0.00 in0.0 mm 0.00 in0.0 mm 0.00 in0.0 mm
03:10 AM 37.0°F2.8°C 31.4°F-0.3°C 80% 2.7 mph ENE4.3 kmh ENE 5.4 mph8.7 kmh 30.39 in1029.1 mb 0.00 in0.0 mm 0.00 in0.0 mm 0.00 in0.0 mm
03:05 AM 37.4°F3.0°C 31.8°F-0.1°C 80% 3.1 mph ENE5.0 kmh ENE 5.4 mph8.7 kmh 30.39 in1029.1 mb 0.00 in0.0 mm 0.00 in0.0 mm 0.00 in0.0 mm
03:00 AM 37.4°F3.0°C 31.8°F-0.1°C 80% 2.2 mph ENE3.5 kmh ENE 4.9 mph7.9 kmh 30.39 in1029.1 mb 0.00 in0.0 mm 0.00 in0.0 mm 0.00 in0.0 mm
02:55 AM 37.4°F3.0°C 31.5°F-0.3°C 79% 1.8 mph NE2.9 kmh NE 4.0 mph6.4 kmh 30.39 in1029.1 mb 0.00 in0.0 mm 0.00 in0.0 mm 0.00 in0.0 mm
02:50 AM 37.5°F3.1°C 31.9°F-0.1°C 80% 2.2 mph ENE3.5 kmh ENE 4.9 mph7.9 kmh 30.39 in1029.1 mb 0.00 in0.0 mm 0.00 in0.0 mm 0.00 in0.0 mm
02:45 AM 37.5°F3.1°C 31.9°F-0.1°C 80% 2.7 mph ENE4.3 kmh ENE 4.9 mph7.9 kmh 30.39 in1029.1 mb 0.00 in0.0 mm 0.00 in0.0 mm 0.00 in0.0 mm
02:40 AM 37.5°F3.1°C 31.9°F-0.1°C 80% 2.7 mph ENE4.3 kmh ENE 4.9 mph7.9 kmh 30.39 in1029.1 mb 0.00 in0.0 mm 0.00 in0.0 mm 0.00 in0.0 mm
02:35 AM 37.9°F3.3°C 32.0°F0.0°C 79% 1.8 mph NE2.9 kmh NE 4.5 mph7.2 kmh 30.39 in1029.1 mb 0.00 in0.0 mm 0.00 in0.0 mm 0.00 in0.0 mm
02:30 AM 37.9°F3.3°C 32.0°F0.0°C 79% 2.2 mph NE3.5 kmh NE 4.5 mph7.2 kmh 30.40 in1029.5 mb 0.00 in0.0 mm 0.00 in0.0 mm 0.00 in0.0 mm
02:25 AM 38.1°F3.4°C 32.2°F0.1°C 79% 3.1 mph ENE5.0 kmh ENE 4.9 mph7.9 kmh 30.40 in1029.5 mb 0.00 in0.0 mm 0.00 in0.0 mm 0.00 in0.0 mm
02:20 AM 38.3°F3.5°C 32.4°F0.2°C 79% 2.7 mph ENE4.3 kmh ENE 4.9 mph7.9 kmh 30.40 in1029.5 mb 0.00 in0.0 mm 0.00 in0.0 mm 0.00 in0.0 mm
02:15 AM 38.1°F3.4°C 32.2°F0.1°C 79% 2.7 mph ENE4.3 kmh ENE 5.8 mph9.3 kmh 30.40 in1029.5 mb 0.00 in0.0 mm 0.00 in0.0 mm 0.00 in0.0 mm
02:10 AM 38.1°F3.4°C 32.2°F0.1°C 79% 2.2 mph ENE3.5 kmh ENE 5.8 mph9.3 kmh 30.40 in1029.5 mb 0.00 in0.0 mm 0.00 in0.0 mm 0.00 in0.0 mm
02:05 AM 38.3°F3.5°C 32.4°F0.2°C 79% 1.8 mph ENE2.9 kmh ENE 4.5 mph7.2 kmh 30.40 in1029.5 mb 0.00 in0.0 mm 0.00 in0.0 mm 0.00 in0.0 mm
02:00 AM 38.4°F3.6°C 32.2°F0.1°C 78% 2.7 mph ENE4.3 kmh ENE 6.3 mph10.1 kmh 30.40 in1029.5 mb 0.00 in0.0 mm 0.00 in0.0 mm 0.00 in0.0 mm
01:55 AM 38.8°F3.8°C 32.6°F0.3°C 78% 3.6 mph E5.8 kmh E 6.7 mph10.8 kmh 30.40 in1029.5 mb 0.00 in0.0 mm 0.00 in0.0 mm 0.00 in0.0 mm
01:50 AM 39.2°F4.0°C 32.6°F0.3°C 77% 4.0 mph ENE6.4 kmh ENE 7.6 mph12.2 kmh 30.40 in1029.5 mb 0.00 in0.0 mm 0.00 in0.0 mm 0.00 in0.0 mm
01:45 AM 39.5°F4.2°C 32.3°F0.2°C 75% 4.0 mph ENE6.4 kmh ENE 7.6 mph12.2 kmh 30.40 in1029.5 mb 0.00 in0.0 mm 0.00 in0.0 mm 0.00 in0.0 mm
01:40 AM 40.6°F4.8°C 32.7°F0.4°C 73% 3.1 mph ENE5.0 kmh ENE 9.9 mph15.9 kmh 30.40 in1029.5 mb 0.00 in0.0 mm 0.00 in0.0 mm 0.00 in0.0 mm
01:35 AM 41.0°F5.0°C 32.4°F0.2°C 71% 2.7 mph ENE4.3 kmh ENE 9.9 mph15.9 kmh 30.40 in1029.5 mb 0.00 in0.0 mm 0.00 in0.0 mm 0.00 in0.0 mm
01:30 AM 40.6°F4.8°C 32.3°F0.2°C 72% 3.1 mph NE5.0 kmh NE 7.2 mph11.6 kmh 30.40 in1029.5 mb 0.00 in0.0 mm 0.00 in0.0 mm 0.00 in0.0 mm
01:25 AM 40.4°F4.7°C 32.5°F0.3°C 73% 3.1 mph NE5.0 kmh NE 7.2 mph11.6 kmh 30.40 in1029.5 mb 0.00 in0.0 mm 0.00 in0.0 mm 0.00 in0.0 mm
01:20 AM 40.6°F4.8°C 33.0°F0.6°C 74% 3.6 mph NE5.8 kmh NE 6.7 mph10.8 kmh 30.40 in1029.5 mb 0.00 in0.0 mm 0.00 in0.0 mm 0.00 in0.0 mm
01:15 AM 40.8°F4.9°C 33.5°F0.8°C 75% 3.1 mph NE5.0 kmh NE 6.7 mph10.8 kmh 30.40 in1029.5 mb 0.00 in0.0 mm 0.00 in0.0 mm 0.00 in0.0 mm
01:10 AM 40.8°F4.9°C 33.5°F0.8°C 75% 2.2 mph NE3.5 kmh NE 4.0 mph6.4 kmh 30.40 in1029.5 mb 0.00 in0.0 mm 0.00 in0.0 mm 0.00 in0.0 mm
01:05 AM 41.1°F5.1°C 33.5°F0.8°C 74% 2.2 mph NE3.5 kmh NE 4.5 mph7.2 kmh 30.40 in1029.5 mb 0.00 in0.0 mm 0.00 in0.0 mm 0.00 in0.0 mm
01:00 AM 41.7°F5.4°C 33.7°F0.9°C 73% 1.8 mph NE2.9 kmh NE 4.5 mph7.2 kmh 30.40 in1029.5 mb 0.00 in0.0 mm 0.00 in0.0 mm 0.00 in0.0 mm
12:55 AM 41.5°F5.3°C 33.5°F0.8°C 73% 1.8 mph ENE2.9 kmh ENE 4.0 mph6.4 kmh 30.40 in1029.5 mb 0.00 in0.0 mm 0.00 in0.0 mm 0.00 in0.0 mm
12:50 AM 41.7°F5.4°C 34.1°F1.2°C 74% 1.8 mph ENE2.9 kmh ENE 4.0 mph6.4 kmh 30.40 in1029.5 mb 0.00 in0.0 mm 0.00 in0.0 mm 0.00 in0.0 mm
12:45 AM 41.1°F5.1°C 34.1°F1.2°C 76% 1.8 mph NE2.9 kmh NE 4.5 mph7.2 kmh 30.40 in1029.5 mb 0.00 in0.0 mm 0.00 in0.0 mm 0.00 in0.0 mm
12:40 AM 41.1°F5.1°C 33.8°F1.0°C 75% 1.8 mph NE2.9 kmh NE 4.5 mph7.2 kmh 30.40 in1029.5 mb 0.00 in0.0 mm 0.00 in0.0 mm 0.00 in0.0 mm
12:35 AM 41.5°F5.3°C 34.2°F1.2°C 75% 2.2 mph NE3.5 kmh NE 4.0 mph6.4 kmh 30.40 in1029.5 mb 0.00 in0.0 mm 0.00 in0.0 mm 0.00 in0.0 mm
12:30 AM 41.9°F5.5°C 34.3°F1.3°C 74% 2.2 mph NE3.5 kmh NE 4.0 mph6.4 kmh 30.40 in1029.5 mb 0.00 in0.0 mm 0.00 in0.0 mm 0.00 in0.0 mm
12:25 AM 42.2°F5.7°C 34.2°F1.2°C 73% 1.8 mph NE2.9 kmh NE 3.6 mph5.8 kmh 30.40 in1029.5 mb 0.00 in0.0 mm 0.00 in0.0 mm 0.00 in0.0 mm
12:20 AM 42.9°F6.1°C 34.2°F1.2°C 71% 1.3 mph ENE2.1 kmh ENE 2.7 mph4.3 kmh 30.40 in1029.5 mb 0.00 in0.0 mm 0.00 in0.0 mm 0.00 in0.0 mm
12:15 AM 43.1°F6.2°C 34.4°F1.3°C 71% 1.8 mph ENE2.9 kmh ENE 4.5 mph7.2 kmh 30.40 in1029.5 mb 0.00 in0.0 mm 0.00 in0.0 mm 0.00 in0.0 mm
12:10 AM 43.7°F6.5°C 34.6°F1.4°C 70% 2.7 mph ENE4.3 kmh ENE 5.4 mph8.7 kmh 30.41 in1029.8 mb 0.00 in0.0 mm 0.00 in0.0 mm 0.00 in0.0 mm
12:05 AM 44.2°F6.8°C 34.7°F1.5°C 69% 2.7 mph ENE4.3 kmh ENE 5.4 mph8.7 kmh 30.41 in1029.8 mb 0.00 in0.0 mm 0.00 in0.0 mm 0.00 in0.0 mm
12:00 AM 44.0°F6.7°C 34.5°F1.4°C 69% 1.8 mph E2.9 kmh E 4.9 mph7.9 kmh 30.41 in1029.8 mb 0.00 in0.0 mm 0.00 in0.0 mm 0.00 in0.0 mm